Time;durP1;ratioP1;P1;durP2;ratioP2;P2;SDS_P1;SDS_P2;PMS_P1;PMS_P2;Temp;Humidity;BMP_temperature;BMP_pressure;BME280_temperature;BME280_humidity;BME280_pressure;Samples;Min_cycle;Max_cycle;Signal;HPM_P1;HPM_P2
2021/05/09 00:00:45;;;;;;;5.53;0.90;;;12.10;99.90;;;;;;4950188;28;20044;-79
2021/05/09 00:03:10;;;;;;;3.38;0.90;;;12.30;99.90;;;;;;4948846;28;20158;-79
2021/05/09 00:05:36;;;;;;;3.30;1.00;;;12.30;99.90;;;;;;4955802;28;20038;-79
2021/05/09 00:08:02;;;;;;;3.13;1.13;;;12.30;99.90;;;;;;4948920;28;20108;-79
2021/05/09 00:10:27;;;;;;;3.65;1.63;;;12.30;99.90;;;;;;4952595;28;20042;-79
2021/05/09 00:12:53;;;;;;;7.30;1.52;;;12.30;99.90;;;;;;4950145;28;20035;-79
2021/05/09 00:15:24;;;;;;;5.90;1.23;;;12.20;99.90;;;;;;4951790;28;20034;-79
2021/05/09 00:17:49;;;;;;;2.67;1.08;;;12.20;99.90;;;;;;4947730;28;20039;-79
2021/05/09 00:20:16;;;;;;;4.03;1.30;;;12.20;99.90;;;;;;4953049;28;20027;-79
2021/05/09 00:22:41;;;;;;;3.08;1.02;;;12.20;99.90;;;;;;4954347;28;20101;-79
2021/05/09 00:25:08;;;;;;;4.43;1.00;;;12.20;99.90;;;;;;4956473;28;20035;-79
2021/05/09 00:27:34;;;;;;;4.03;0.80;;;12.00;99.90;;;;;;4958519;28;20098;-79
2021/05/09 00:30:00;;;;;;;4.88;1.20;;;12.30;99.90;;;;;;4962011;28;20291;-79
2021/05/09 00:32:25;;;;;;;2.97;0.98;;;12.20;99.90;;;;;;4955932;28;20035;-79
2021/05/09 00:34:51;;;;;;;6.55;0.90;;;12.00;99.90;;;;;;4957922;28;20067;-79
2021/05/09 00:37:16;;;;;;;5.47;1.40;;;12.00;99.90;;;;;;4953182;28;20051;-79
2021/05/09 00:39:44;;;;;;;4.85;1.08;;;12.00;99.90;;;;;;4952573;28;20699;-79
2021/05/09 00:42:10;;;;;;;3.40;1.05;;;12.00;99.90;;;;;;4953393;28;20023;-79
2021/05/09 00:44:35;;;;;;;3.03;1.00;;;11.90;99.90;;;;;;4957278;28;20031;-78
2021/05/09 00:47:05;;;;;;;4.05;0.95;;;11.80;99.90;;;;;;4950126;28;20042;-79
2021/05/09 00:49:30;;;;;;;4.05;1.10;;;11.70;99.90;;;;;;4951192;28;20070;-79
2021/05/09 00:51:59;;;;;;;6.22;1.27;;;11.70;99.90;;;;;;4952357;28;20429;-79
2021/05/09 00:54:26;;;;;;;5.50;1.30;;;11.70;99.90;;;;;;4958652;28;20035;-79
2021/05/09 00:56:55;;;;;;;6.57;1.55;;;11.70;99.90;;;;;;4956771;28;20046;-79
2021/05/09 00:59:22;;;;;;;3.35;1.10;;;11.70;99.90;;;;;;4960278;28;20035;-79
2021/05/09 01:01:48;;;;;;;6.38;1.20;;;11.60;99.90;;;;;;4956112;28;20441;-79
2021/05/09 01:04:16;;;;;;;5.68;1.00;;;11.40;99.90;;;;;;4960449;28;20118;-79
2021/05/09 01:06:43;;;;;;;5.30;1.00;;;11.50;99.90;;;;;;4955288;28;20043;-80
2021/05/09 01:09:09;;;;;;;3.05;1.10;;;11.50;99.90;;;;;;4954965;28;20039;-79
2021/05/09 01:11:36;;;;;;;4.55;1.23;;;11.60;99.90;;;;;;4953183;28;20031;-79
2021/05/09 01:14:02;;;;;;;2.28;1.00;;;11.50;99.90;;;;;;4953024;28;20488;-79
2021/05/09 01:16:27;;;;;;;3.00;0.88;;;11.50;99.90;;;;;;4953991;28;20039;-79
2021/05/09 01:18:53;;;;;;;2.30;0.90;;;11.80;99.90;;;;;;4950097;28;20040;-79
2021/05/09 01:21:18;;;;;;;2.45;0.77;;;11.80;99.90;;;;;;4955440;28;20042;-79
2021/05/09 01:23:44;;;;;;;2.15;0.95;;;11.80;99.90;;;;;;4949075;28;20129;-79
2021/05/09 01:26:10;;;;;;;6.32;0.90;;;11.80;99.90;;;;;;4957791;28;20500;-80
2021/05/09 01:28:36;;;;;;;3.22;0.80;;;11.80;99.90;;;;;;4956752;28;20074;-79
2021/05/09 01:31:01;;;;;;;2.83;0.80;;;11.80;99.90;;;;;;4952386;28;20515;-79
2021/05/09 01:33:27;;;;;;;1.98;0.50;;;11.80;99.90;;;;;;4954631;28;20411;-80
2021/05/09 01:35:53;;;;;;;4.05;0.70;;;11.90;99.90;;;;;;4953702;28;20386;-79
2021/05/09 01:38:18;;;;;;;5.97;1.10;;;11.90;99.90;;;;;;4955269;28;20413;-79
2021/05/09 01:40:44;;;;;;;5.63;1.00;;;11.80;99.90;;;;;;4955201;28;20039;-79
2021/05/09 01:43:10;;;;;;;4.63;1.20;;;11.80;99.90;;;;;;4956864;28;20074;-79
2021/05/09 01:45:35;;;;;;;9.63;1.25;;;11.80;99.90;;;;;;4954659;28;20122;-79
2021/05/09 01:48:01;;;;;;;6.03;1.17;;;11.50;99.90;;;;;;4959942;28;20031;-79
2021/05/09 01:50:26;;;;;;;4.35;0.95;;;11.50;99.90;;;;;;4951564;28;20398;-79
2021/05/09 01:52:52;;;;;;;3.50;0.88;;;11.60;99.90;;;;;;4953034;28;20043;-79
2021/05/09 01:55:21;;;;;;;4.60;0.98;;;11.60;99.90;;;;;;4952271;28;20031;-79
2021/05/09 01:57:46;;;;;;;5.53;1.00;;;11.60;99.90;;;;;;4960304;28;20421;-79
2021/05/09 02:00:17;;;;;;;7.55;0.90;;;11.60;99.90;;;;;;4958014;28;20039;-80
2021/05/09 02:02:44;;;;;;;3.08;0.93;;;11.50;99.90;;;;;;4955992;28;20031;-79
2021/05/09 02:05:10;;;;;;;4.32;0.85;;;11.40;99.90;;;;;;4962720;28;20074;-79
2021/05/09 02:07:36;;;;;;;6.22;1.20;;;11.40;99.90;;;;;;4958635;28;20051;-79
2021/05/09 02:10:04;;;;;;;2.38;0.90;;;11.30;99.90;;;;;;4962389;28;20039;-79
2021/05/09 02:12:30;;;;;;;2.17;0.70;;;11.30;99.90;;;;;;4967900;28;20042;-79
2021/05/09 02:14:56;;;;;;;2.38;0.90;;;11.10;99.90;;;;;;4960384;28;20041;-79
2021/05/09 02:17:21;;;;;;;4.60;1.20;;;11.10;99.90;;;;;;4951206;28;20082;-79
2021/05/09 02:19:47;;;;;;;4.32;0.95;;;11.10;99.90;;;;;;4958886;28;20035;-79
2021/05/09 02:22:13;;;;;;;3.80;1.10;;;10.90;99.90;;;;;;4957049;28;20091;-79
2021/05/09 02:24:39;;;;;;;3.97;0.90;;;10.90;99.90;;;;;;4949254;28;20027;-79
2021/05/09 02:27:05;;;;;;;5.45;1.00;;;10.90;99.90;;;;;;4960021;28;20552;-79
2021/05/09 02:29:30;;;;;;;4.95;0.98;;;10.70;99.90;;;;;;4953818;28;20026;-79
2021/05/09 02:31:56;;;;;;;2.55;0.80;;;10.90;99.90;;;;;;4960485;28;20058;-79
2021/05/09 02:34:21;;;;;;;2.80;1.02;;;10.80;99.90;;;;;;4953991;28;20030;-79
2021/05/09 02:36:47;;;;;;;6.28;1.30;;;10.80;99.90;;;;;;4955357;28;20519;-79
2021/05/09 02:39:14;;;;;;;7.85;1.10;;;10.80;99.90;;;;;;4964877;28;20399;-79
2021/05/09 02:41:40;;;;;;;2.38;0.93;;;10.80;99.90;;;;;;4955235;28;20031;-79
2021/05/09 02:44:06;;;;;;;5.85;1.50;;;10.70;99.90;;;;;;4954254;28;20042;-79
2021/05/09 02:46:32;;;;;;;2.90;0.90;;;10.70;99.90;;;;;;4963785;28;20358;-79
2021/05/09 02:48:58;;;;;;;4.32;0.90;;;10.70;99.90;;;;;;4954110;28;20035;-79
2021/05/09 02:51:24;;;;;;;2.83;0.77;;;10.50;99.90;;;;;;4952468;28;20121;-79
2021/05/09 02:53:50;;;;;;;2.78;0.80;;;10.60;99.90;;;;;;4953697;28;20058;-79
2021/05/09 02:56:15;;;;;;;4.22;0.80;;;10.50;99.90;;;;;;4950598;28;20043;-79
2021/05/09 02:58:41;;;;;;;4.65;1.10;;;10.60;99.90;;;;;;4957854;28;20058;-79
2021/05/09 03:01:06;;;;;;;3.47;1.00;;;10.60;99.90;;;;;;4955121;28;20042;-80
2021/05/09 03:03:32;;;;;;;2.40;1.25;;;10.60;99.90;;;;;;4951957;28;20030;-79
2021/05/09 03:05:58;;;;;;;3.22;0.95;;;10.60;99.90;;;;;;4954909;28;20575;-79
2021/05/09 03:08:24;;;;;;;3.75;1.23;;;10.50;99.90;;;;;;4956366;28;20400;-79
2021/05/09 03:10:49;;;;;;;3.05;1.00;;;10.40;99.90;;;;;;4959243;28;20039;-79
2021/05/09 03:13:15;;;;;;;3.50;0.82;;;10.40;99.90;;;;;;4953808;28;20070;-79
2021/05/09 03:15:41;;;;;;;3.20;1.10;;;10.30;99.90;;;;;;4956995;28;20291;-79
2021/05/09 03:18:06;;;;;;;5.05;0.90;;;10.30;99.90;;;;;;4952480;28;20027;-79
2021/05/09 03:20:32;;;;;;;3.58;1.10;;;10.40;99.90;;;;;;4954663;28;20043;-79
2021/05/09 03:22:58;;;;;;;4.50;1.00;;;10.40;99.90;;;;;;4951258;28;20030;-79
2021/05/09 03:25:23;;;;;;;2.88;0.93;;;10.30;99.90;;;;;;4953409;28;20401;-79
2021/05/09 03:27:49;;;;;;;2.88;1.08;;;10.30;99.90;;;;;;4956046;28;20062;-79
2021/05/09 03:30:15;;;;;;;3.45;1.10;;;10.30;99.90;;;;;;4954404;28;20090;-79
2021/05/09 03:32:41;;;;;;;5.00;0.93;;;10.20;99.90;;;;;;4960413;28;20042;-79
2021/05/09 03:35:08;;;;;;;2.35;0.85;;;10.00;99.90;;;;;;4951274;28;20040;-79
2021/05/09 03:37:34;;;;;;;4.30;0.90;;;10.10;99.90;;;;;;4971445;28;20445;-79
2021/05/09 03:40:00;;;;;;;3.72;1.00;;;10.10;99.90;;;;;;4955096;28;20042;-79
2021/05/09 03:42:26;;;;;;;3.10;0.73;;;10.10;99.90;;;;;;4954297;28;20035;-79
2021/05/09 03:44:51;;;;;;;4.85;1.00;;;10.10;99.90;;;;;;4957970;28;20039;-79
2021/05/09 03:47:17;;;;;;;4.43;1.10;;;10.10;99.90;;;;;;4951503;28;20268;-79
2021/05/09 03:49:43;;;;;;;4.38;0.90;;;10.00;99.90;;;;;;4952313;28;20123;-79
2021/05/09 03:52:08;;;;;;;3.83;0.80;;;10.00;99.90;;;;;;4953284;28;20515;-79
2021/05/09 03:54:34;;;;;;;6.38;0.88;;;10.00;99.90;;;;;;4956070;28;20045;-79
2021/05/09 03:56:59;;;;;;;6.57;1.20;;;10.00;99.90;;;;;;4950028;28;20043;-79
2021/05/09 03:59:25;;;;;;;3.35;1.17;;;10.00;99.90;;;;;;4953859;28;20041;-78
2021/05/09 04:01:51;;;;;;;3.20;1.00;;;10.00;99.90;;;;;;4954927;28;20027;-79
2021/05/09 04:04:16;;;;;;;2.72;0.60;;;10.00;99.90;;;;;;4950748;28;20078;-79
2021/05/09 04:06:42;;;;;;;1.95;0.80;;;9.90;99.90;;;;;;4948275;28;20031;-79
2021/05/09 04:09:08;;;;;;;6.18;0.90;;;9.90;99.90;;;;;;4955372;28;20038;-79
2021/05/09 04:11:34;;;;;;;3.22;0.98;;;9.90;99.90;;;;;;4957988;28;20038;-79
2021/05/09 04:14:00;;;;;;;3.22;0.73;;;10.00;99.90;;;;;;4953168;28;20039;-79
2021/05/09 04:16:26;;;;;;;2.45;0.73;;;9.90;99.90;;;;;;4956789;28;20159;-79
2021/05/09 04:18:51;;;;;;;2.95;0.85;;;9.90;99.90;;;;;;4952987;28;20024;-79
2021/05/09 04:21:17;;;;;;;4.75;0.80;;;10.00;99.90;;;;;;4952470;28;20473;-79
2021/05/09 04:23:42;;;;;;;2.63;0.70;;;9.90;99.90;;;;;;4952595;28;20078;-79
2021/05/09 04:26:08;;;;;;;3.20;0.70;;;10.00;99.90;;;;;;4953721;28;20050;-79
2021/05/09 04:28:33;;;;;;;3.92;0.90;;;9.90;99.90;;;;;;4951527;28;20056;-80
2021/05/09 04:30:59;;;;;;;3.08;0.93;;;9.90;99.90;;;;;;4953511;28;20039;-79
2021/05/09 04:33:26;;;;;;;1.23;0.60;;;9.90;99.90;;;;;;4952125;28;20039;-79
2021/05/09 04:35:51;;;;;;;2.75;0.80;;;10.00;99.90;;;;;;4946104;28;20042;-79
2021/05/09 04:38:18;;;;;;;4.70;1.08;;;10.00;99.90;;;;;;4946021;28;20074;-79
2021/05/09 04:40:44;;;;;;;2.63;0.77;;;10.00;99.90;;;;;;4949118;28;20030;-79
2021/05/09 04:43:15;;;;;;;3.60;0.88;;;9.90;99.90;;;;;;4956340;28;20050;-79
2021/05/09 04:45:44;;;;;;;4.07;1.10;;;9.90;99.90;;;;;;4954740;28;20033;-79
2021/05/09 04:48:09;;;;;;;2.03;0.82;;;10.00;99.90;;;;;;4951658;28;20047;-79
2021/05/09 04:50:35;;;;;;;3.85;1.00;;;10.00;99.90;;;;;;4954483;28;20081;-79
2021/05/09 04:53:00;;;;;;;3.17;1.10;;;10.00;99.90;;;;;;4953380;28;20124;-79
2021/05/09 04:55:26;;;;;;;5.50;1.30;;;10.00;99.90;;;;;;4952174;28;20614;-79
2021/05/09 04:57:52;;;;;;;4.43;1.00;;;10.00;99.90;;;;;;4955227;28;20564;-79
2021/05/09 05:00:18;;;;;;;3.80;0.85;;;10.00;99.90;;;;;;4953386;28;20085;-79
2021/05/09 05:02:45;;;;;;;4.65;1.02;;;10.00;99.90;;;;;;4954276;28;20066;-79
2021/05/09 05:05:11;;;;;;;2.90;0.90;;;10.10;99.90;;;;;;4952008;28;20055;-79
2021/05/09 05:07:37;;;;;;;2.85;0.80;;;10.00;99.90;;;;;;4956523;28;20083;-79
2021/05/09 05:10:04;;;;;;;3.97;1.17;;;10.10;99.90;;;;;;4955323;28;20042;-79
2021/05/09 05:12:30;;;;;;;7.28;0.70;;;10.10;99.90;;;;;;4957872;28;20367;-79
2021/05/09 05:14:55;;;;;;;5.95;1.02;;;10.50;99.90;;;;;;4960449;28;20034;-79
2021/05/09 05:17:21;;;;;;;3.83;0.90;;;10.70;99.90;;;;;;4956120;28;20038;-79
2021/05/09 05:19:46;;;;;;;3.10;0.90;;;10.80;99.90;;;;;;4961192;28;20373;-79
2021/05/09 05:22:12;;;;;;;4.68;1.30;;;10.80;99.90;;;;;;4958546;28;20045;-79
2021/05/09 05:24:38;;;;;;;3.38;1.05;;;10.80;99.90;;;;;;4954878;28;20087;-79
2021/05/09 05:27:04;;;;;;;5.20;1.10;;;10.70;99.90;;;;;;4956637;28;20122;-79
2021/05/09 05:29:30;;;;;;;8.52;1.50;;;10.80;99.90;;;;;;4954208;28;20474;-79
2021/05/09 05:31:55;;;;;;;4.22;1.35;;;10.90;99.90;;;;;;4956538;28;20049;-79
2021/05/09 05:34:21;;;;;;;5.90;1.40;;;10.90;99.90;;;;;;4954056;28;20063;-79
2021/05/09 05:36:47;;;;;;;5.68;1.40;;;11.00;99.90;;;;;;4958198;28;20064;-79
2021/05/09 05:39:13;;;;;;;4.10;1.27;;;11.10;99.90;;;;;;4956528;28;20030;-79
2021/05/09 05:41:40;;;;;;;4.47;1.25;;;11.30;99.90;;;;;;4962965;28;20121;-79
2021/05/09 05:44:07;;;;;;;5.07;1.50;;;11.60;99.90;;;;;;4955464;28;20034;-79
2021/05/09 05:46:32;;;;;;;3.85;1.20;;;11.90;99.90;;;;;;4953998;28;20039;-79
2021/05/09 05:48:58;;;;;;;4.07;1.83;;;12.40;99.90;;;;;;4955222;28;20035;-79
2021/05/09 05:51:24;;;;;;;7.25;1.63;;;12.70;99.90;;;;;;4955234;28;20078;-80
2021/05/09 05:53:54;;;;;;;3.03;1.00;;;12.80;99.90;;;;;;4959423;28;20055;-80
2021/05/09 05:56:20;;;;;;;5.32;1.40;;;13.10;99.90;;;;;;4955715;28;20043;-80
2021/05/09 05:58:46;;;;;;;1.83;0.68;;;13.60;99.90;;;;;;4956035;28;20042;-80
2021/05/09 06:01:11;;;;;;;5.22;1.13;;;13.80;99.90;;;;;;4955578;28;20039;-80
2021/05/09 06:03:37;;;;;;;6.97;1.20;;;13.90;99.90;;;;;;4953955;28;20027;-79
2021/05/09 06:06:03;;;;;;;3.85;1.25;;;14.20;99.90;;;;;;4954644;28;20051;-81
2021/05/09 06:08:28;;;;;;;3.42;0.90;;;14.40;99.90;;;;;;4951302;28;20045;-81
2021/05/09 06:10:54;;;;;;;4.25;0.80;;;14.70;99.90;;;;;;4956593;28;20473;-80
2021/05/09 06:13:21;;;;;;;2.95;0.90;;;14.70;99.90;;;;;;4956305;28;20043;-80
2021/05/09 06:15:47;;;;;;;5.97;1.60;;;14.90;99.90;;;;;;4952903;28;20035;-80
2021/05/09 06:18:13;;;;;;;5.70;0.77;;;14.90;99.90;;;;;;4955794;28;20082;-81
2021/05/09 06:20:38;;;;;;;2.17;0.80;;;15.10;99.90;;;;;;4953668;28;20036;-81
2021/05/09 06:23:04;;;;;;;1.45;0.70;;;15.20;99.90;;;;;;4955268;28;20445;-81
2021/05/09 06:25:31;;;;;;;2.45;0.80;;;15.20;99.90;;;;;;4955622;28;20039;-80
2021/05/09 06:27:56;;;;;;;2.70;1.02;;;15.50;99.90;;;;;;4957111;28;20130;-82
2021/05/09 06:30:22;;;;;;;3.00;0.90;;;15.80;99.90;;;;;;4957402;28;20537;-82
2021/05/09 06:32:48;;;;;;;3.10;0.90;;;16.10;99.90;;;;;;4952737;28;20074;-81
2021/05/09 06:35:14;;;;;;;3.95;0.82;;;16.30;99.90;;;;;;4954981;28;20317;-81
2021/05/09 06:37:40;;;;;;;3.42;0.88;;;16.60;99.90;;;;;;4955101;28;20539;-81
2021/05/09 06:40:07;;;;;;;1.88;0.60;;;16.70;99.90;;;;;;4956316;28;20039;-80
2021/05/09 06:42:33;;;;;;;5.07;0.95;;;16.90;99.90;;;;;;4957766;28;20101;-80
2021/05/09 06:45:12;;;;;;;7.53;1.05;;;16.90;99.90;;;;;;4960441;28;20038;-80
2021/05/09 06:47:38;;;;;;;4.70;1.15;;;16.90;99.90;;;;;;4956612;28;20571;-80
2021/05/09 06:50:04;;;;;;;2.35;0.88;;;16.90;99.90;;;;;;4956616;28;20035;-80
2021/05/09 06:52:30;;;;;;;3.50;0.80;;;17.10;99.90;;;;;;4956677;28;20046;-80
2021/05/09 06:54:55;;;;;;;4.72;0.80;;;17.30;99.90;;;;;;4958909;28;20034;-80
2021/05/09 06:57:21;;;;;;;2.13;0.57;;;17.60;99.90;;;;;;4954650;28;20386;-81
2021/05/09 06:59:47;;;;;;;3.35;0.55;;;17.70;99.90;;;;;;4962571;28;20077;-81
2021/05/09 07:02:12;;;;;;;0.98;0.50;;;17.80;99.90;;;;;;4958469;28;20035;-81
2021/05/09 07:04:38;;;;;;;3.78;0.85;;;17.80;98.40;;;;;;4960765;28;20035;-83
2021/05/09 07:07:04;;;;;;;12.63;3.97;;;18.10;97.40;;;;;;4965089;28;20030;-83
2021/05/09 07:09:30;;;;;;;2.60;0.77;;;18.30;97.80;;;;;;4959160;28;20211;-83
2021/05/09 07:11:55;;;;;;;2.10;0.60;;;18.50;98.00;;;;;;4958576;28;20563;-82
2021/05/09 07:14:21;;;;;;;18.33;4.35;;;18.70;98.50;;;;;;4960170;28;20026;-76
2021/05/09 07:16:47;;;;;;;2.58;0.73;;;18.70;98.10;;;;;;4956136;28;20087;-78
2021/05/09 07:19:14;;;;;;;5.45;0.80;;;18.80;97.00;;;;;;4957629;28;20064;-79
2021/05/09 07:21:43;;;;;;;1.75;0.55;;;19.10;96.80;;;;;;4957818;28;20502;-79
2021/05/09 07:24:09;;;;;;;4.95;1.35;;;19.30;95.20;;;;;;4961527;28;20027;-78
2021/05/09 07:26:35;;;;;;;2.80;0.90;;;19.20;94.80;;;;;;4961802;28;20042;-78
2021/05/09 07:29:00;;;;;;;8.43;2.75;;;19.60;94.40;;;;;;4963167;28;20543;-76
2021/05/09 07:31:26;;;;;;;4.50;0.80;;;19.90;95.20;;;;;;4961475;28;20050;-76
2021/05/09 07:33:51;;;;;;;1.20;0.60;;;20.30;94.10;;;;;;4958849;28;20109;-77
2021/05/09 07:36:17;;;;;;;2.45;0.68;;;20.60;92.50;;;;;;4959152;28;20097;-78
2021/05/09 07:38:43;;;;;;;1.52;0.57;;;21.00;93.40;;;;;;4959846;28;20392;-77
2021/05/09 07:41:09;;;;;;;3.17;0.60;;;20.30;90.60;;;;;;4958567;28;20031;-77
2021/05/09 07:43:34;;;;;;;2.13;0.52;;;20.30;91.10;;;;;;4964509;28;20770;-77
2021/05/09 07:46:00;;;;;;;3.03;0.73;;;20.70;90.50;;;;;;4961777;28;20066;-77
2021/05/09 07:48:26;;;;;;;2.15;0.60;;;21.40;88.80;;;;;;4960270;28;20027;-77
2021/05/09 07:50:52;;;;;;;6.95;1.75;;;21.90;85.00;;;;;;4961312;28;20082;-77
2021/05/09 07:53:18;;;;;;;6.03;1.48;;;21.90;85.80;;;;;;4953192;28;20545;-78
2021/05/09 07:55:45;;;;;;;2.97;0.90;;;22.10;82.60;;;;;;4949703;28;20050;-77
2021/05/09 07:58:18;;;;;;;6.93;1.85;;;22.10;76.30;;;;;;4959495;28;20023;-77
2021/05/09 08:00:44;;;;;;;8.98;2.40;;;22.20;77.70;;;;;;4960169;28;20119;-77
2021/05/09 08:03:10;;;;;;;8.18;1.02;;;22.70;77.50;;;;;;4962011;28;20429;-77
2021/05/09 08:05:36;;;;;;;1.30;0.60;;;22.70;76.90;;;;;;4949086;28;20126;-77
2021/05/09 08:08:02;;;;;;;3.35;1.05;;;23.00;74.80;;;;;;4949651;28;20437;-77
2021/05/09 08:10:35;;;;;;;5.85;0.88;;;23.00;72.10;;;;;;4959866;28;20215;-77
2021/05/09 08:13:01;;;;;;;2.80;0.88;;;23.20;72.60;;;;;;4962319;28;20030;-77
2021/05/09 08:15:27;;;;;;;12.90;2.33;;;22.60;74.10;;;;;;4952307;28;20444;-77
2021/05/09 08:17:55;;;;;;;10.80;2.08;;;23.10;73.00;;;;;;4962993;28;20378;-75
2021/05/09 08:20:21;;;;;;;2.30;0.50;;;23.30;74.50;;;;;;4964634;28;20051;-76
2021/05/09 08:22:47;;;;;;;3.28;0.82;;;23.50;70.50;;;;;;4952831;28;20035;-76
2021/05/09 08:25:14;;;;;;;4.00;0.50;;;23.50;69.30;;;;;;4952693;28;20035;-75
2021/05/09 08:27:41;;;;;;;2.25;0.50;;;23.60;69.10;;;;;;4953116;28;20039;-76
2021/05/09 08:30:07;;;;;;;1.73;0.40;;;23.50;68.60;;;;;;4961369;28;20031;-75
2021/05/09 08:32:33;;;;;;;2.72;0.50;;;23.60;69.20;;;;;;4963499;28;20066;-77
2021/05/09 08:35:00;;;;;;;2.05;0.43;;;23.40;68.60;;;;;;4970763;28;20117;-78
2021/05/09 08:37:26;;;;;;;1.48;0.40;;;23.60;68.60;;;;;;4966791;28;20093;-77
2021/05/09 08:39:53;;;;;;;2.55;0.52;;;23.70;68.70;;;;;;4966117;28;20295;-76
2021/05/09 08:42:20;;;;;;;5.72;0.65;;;23.60;68.20;;;;;;4959242;28;20433;-77
2021/05/09 08:44:47;;;;;;;2.35;0.60;;;23.90;67.70;;;;;;4962750;28;20540;-76
2021/05/09 08:47:15;;;;;;;2.58;0.70;;;24.10;65.80;;;;;;4967680;28;20500;-76
2021/05/09 08:49:42;;;;;;;3.95;0.70;;;24.30;66.40;;;;;;4964805;28;20038;-76
2021/05/09 08:52:09;;;;;;;2.22;0.85;;;24.40;64.30;;;;;;4971632;28;20475;-76
2021/05/09 08:54:35;;;;;;;2.72;0.60;;;24.50;66.20;;;;;;4966426;28;20034;-79
2021/05/09 08:57:03;;;;;;;1.67;0.40;;;24.10;64.80;;;;;;4973579;28;20118;-79
2021/05/09 08:59:29;;;;;;;2.72;0.60;;;24.20;63.70;;;;;;4962982;28;20035;-76
2021/05/09 09:01:56;;;;;;;2.38;0.80;;;24.30;63.20;;;;;;4973488;28;20074;-80
2021/05/09 09:04:22;;;;;;;7.22;1.98;;;24.50;63.50;;;;;;4970516;28;20118;-78
2021/05/09 09:06:47;;;;;;;14.05;3.15;;;24.40;64.20;;;;;;4970953;28;20125;-76
2021/05/09 09:09:24;;;;;;;3.20;0.70;;;24.40;67.60;;;;;;4974323;28;20053;-75
2021/05/09 09:11:55;;;;;;;1.95;0.55;;;24.60;64.90;;;;;;4970747;28;20610;-76
2021/05/09 09:14:26;;;;;;;2.10;0.60;;;24.70;63.20;;;;;;4968598;28;20074;-76
2021/05/09 09:17:13;;;;;;;8.52;1.48;;;24.70;64.50;;;;;;4988832;28;20571;-76
2021/05/09 09:20:05;;;;;;;3.42;0.90;;;24.80;64.60;;;;;;4979769;28;20027;-76
2021/05/09 09:22:49;;;;;;;8.45;0.90;;;24.90;62.10;;;;;;4968713;28;20030;-76
2021/05/09 09:25:16;;;;;;;6.85;1.00;;;24.80;64.40;;;;;;4972454;28;20043;-76
2021/05/09 09:27:43;;;;;;;5.43;0.52;;;24.50;62.80;;;;;;4973144;28;20039;-76
2021/05/09 09:30:10;;;;;;;1.23;0.38;;;24.40;61.50;;;;;;4983842;28;20058;-78
2021/05/09 09:32:36;;;;;;;4.00;1.00;;;23.80;60.80;;;;;;4973929;28;20041;-79
2021/05/09 09:35:02;;;;;;;1.10;0.40;;;23.80;63.10;;;;;;4973263;28;20031;-79
2021/05/09 09:37:34;;;;;;;3.50;1.20;;;23.90;63.60;;;;;;4960682;28;20093;-79
2021/05/09 09:40:02;;;;;;;9.50;4.40;;;23.60;64.40;;;;;;4971993;28;20034;-79
2021/05/09 09:42:41;;;;;;;1.80;0.70;;;23.50;65.30;;;;;;4971482;28;20154;-79
2021/05/09 09:45:19;;;;;;;1.85;0.50;;;23.00;60.70;;;;;;4973889;28;20035;-79
2021/05/09 09:47:49;;;;;;;1.83;0.52;;;22.50;62.10;;;;;;4958843;28;20030;-78
2021/05/09 09:50:46;;;;;;;3.47;0.57;;;22.80;62.20;;;;;;4962854;28;20046;-79
2021/05/09 09:53:33;;;;;;;1.13;0.40;;;22.60;59.50;;;;;;4962122;28;20039;-77
2021/05/09 09:56:12;;;;;;;1.15;0.40;;;22.60;61.20;;;;;;4963526;28;20067;-79
2021/05/09 09:58:57;;;;;;;2.75;0.70;;;22.70;63.50;;;;;;4965474;28;20029;-79
2021/05/09 10:01:36;;;;;;;4.25;0.82;;;22.90;64.30;;;;;;4972070;28;20043;-78
2021/05/09 10:04:07;;;;;;;4.47;0.77;;;23.10;62.50;;;;;;4959464;28;20516;-78
2021/05/09 10:06:34;;;;;;;2.45;0.90;;;22.90;62.40;;;;;;4958898;28;20144;-78
2021/05/09 10:09:00;;;;;;;2.70;0.98;;;22.90;60.60;;;;;;4963303;28;20078;-78
2021/05/09 10:11:27;;;;;;;3.50;0.90;;;23.00;63.60;;;;;;4959087;28;20121;-78
2021/05/09 10:13:53;;;;;;;3.22;1.00;;;23.30;61.60;;;;;;4950970;28;20039;-78
2021/05/09 10:16:23;;;;;;;1.92;0.60;;;23.50;61.80;;;;;;4969060;28;20042;-78
2021/05/09 10:18:55;;;;;;;2.92;0.93;;;23.50;65.50;;;;;;4956077;28;20034;-79
2021/05/09 10:21:32;;;;;;;5.90;1.45;;;23.40;65.70;;;;;;4959481;28;20102;-78
2021/05/09 10:24:17;;;;;;;1.90;0.63;;;23.40;66.50;;;;;;4957745;28;20027;-78
2021/05/09 10:27:02;;;;;;;1.90;0.60;;;23.40;65.00;;;;;;4954116;28;20098;-78
2021/05/09 10:29:37;;;;;;;2.63;0.95;;;23.50;61.30;;;;;;4951219;28;20129;-78
2021/05/09 10:32:18;;;;;;;3.45;1.00;;;23.40;64.70;;;;;;4962106;28;20043;-78
2021/05/09 10:34:56;;;;;;;4.63;0.63;;;23.50;65.10;;;;;;4961138;28;20130;-78
2021/05/09 10:40:21;;;;;;;6.63;3.10;;;23.40;61.90;;;;;;4960872;28;20039;-78
2021/05/09 10:43:03;;;;;;;1.83;0.80;;;23.60;62.60;;;;;;4958686;28;20031;-79
2021/05/09 10:45:35;;;;;;;2.97;0.93;;;23.20;62.20;;;;;;4953767;28;20027;-79
2021/05/09 10:48:13;;;;;;;;;;;23.60;66.40;;;;;;4959339;28;20090;-78
2021/05/09 10:50:39;;;;;;;4.05;0.60;;;23.90;65.80;;;;;;4958209;28;19917;-79
2021/05/09 10:53:05;;;;;;;2.03;0.70;;;24.00;65.80;;;;;;4959439;28;20062;-78
2021/05/09 10:55:42;;;;;;;1.63;0.60;;;23.90;60.20;;;;;;4951696;28;20514;-78
2021/05/09 10:58:17;;;;;;;1.65;0.55;;;23.80;55.90;;;;;;4955323;28;20082;-78
2021/05/09 11:01:12;;;;;;;1.90;0.68;;;23.80;58.90;;;;;;4952121;28;20518;-78
2021/05/09 11:03:39;;;;;;;2.90;0.70;;;24.40;66.70;;;;;;4956182;28;20042;-78
2021/05/09 11:06:11;;;;;;;1.40;0.70;;;24.40;64.40;;;;;;4959595;28;20073;-78
2021/05/09 11:08:42;;;;;;;1.73;0.60;;;24.10;64.70;;;;;;4955765;28;20476;-78
2021/05/09 11:11:14;;;;;;;3.10;0.88;;;24.10;66.70;;;;;;4953813;28;20031;-78
2021/05/09 11:16:34;;;;;;;3.42;1.00;;;24.20;65.20;;;;;;4955031;28;20543;-78
2021/05/09 11:19:08;;;;;;;3.38;1.30;;;24.50;68.00;;;;;;4961456;28;20066;-78
2021/05/09 11:21:47;;;;;;;5.55;2.33;;;24.40;66.10;;;;;;4953797;28;20342;-78
2021/05/09 11:24:39;;;;;;;3.97;1.00;;;24.50;67.20;;;;;;4961221;28;20023;-78
2021/05/09 11:27:13;;;;;;;4.30;0.95;;;24.30;65.60;;;;;;4951867;28;20527;-78
2021/05/09 11:29:48;;;;;;;5.70;0.70;;;24.30;63.60;;;;;;4958872;28;20031;-78
2021/05/09 11:32:15;;;;;;;3.22;0.80;;;24.10;63.60;;;;;;4957475;28;20054;-78
2021/05/09 11:35:00;;;;;;;2.25;0.63;;;24.40;67.80;;;;;;4953334;28;20082;-78
2021/05/09 11:37:37;;;;;;;3.75;0.60;;;24.80;67.10;;;;;;4954469;28;20061;-78
2021/05/09 11:40:05;;;;;;;4.22;0.60;;;25.10;68.80;;;;;;4951845;28;20042;-78
2021/05/09 11:42:31;;;;;;;2.28;0.60;;;25.10;65.30;;;;;;4955413;28;20037;-78
2021/05/09 11:44:57;;;;;;;2.28;0.60;;;25.00;65.00;;;;;;4951201;28;20034;-78
2021/05/09 11:47:24;;;;;;;1.60;0.50;;;24.90;64.80;;;;;;4951918;28;20041;-78
2021/05/09 11:50:01;;;;;;;4.25;1.08;;;24.80;65.00;;;;;;4957961;28;20370;-78
2021/05/09 11:52:31;;;;;;;2.03;0.70;;;25.00;65.60;;;;;;4955449;28;20032;-78
2021/05/09 11:54:58;;;;;;;2.42;0.52;;;25.20;63.30;;;;;;4954331;28;20031;-78
2021/05/09 11:57:26;;;;;;;2.15;0.60;;;25.50;63.10;;;;;;4953715;28;20492;-78
2021/05/09 12:00:01;;;;;;;5.43;0.80;;;25.50;63.20;;;;;;4959189;28;20054;-78
2021/05/09 12:02:31;;;;;;;4.20;0.65;;;25.20;61.60;;;;;;4949556;28;20034;-78
2021/05/09 12:05:05;;;;;;;1.40;0.50;;;25.00;61.30;;;;;;4949997;28;20074;-78
2021/05/09 12:07:52;;;;;;;2.95;0.90;;;24.90;61.20;;;;;;4955529;28;20062;-78
2021/05/09 12:10:28;;;;;;;2.58;0.90;;;24.90;64.30;;;;;;4948893;28;20134;-78
2021/05/09 12:13:06;;;;;;;8.30;1.20;;;24.90;64.10;;;;;;4953261;28;20039;-78
2021/05/09 12:15:45;;;;;;;3.20;0.80;;;25.20;67.40;;;;;;4959512;28;20035;-78
2021/05/09 12:18:11;;;;;;;3.95;0.80;;;25.40;66.40;;;;;;4953907;28;20054;-78
2021/05/09 12:20:45;;;;;;;5.90;1.58;;;25.30;66.30;;;;;;4952912;28;20469;-78
2021/05/09 12:23:27;;;;;;;3.25;1.42;;;25.40;66.50;;;;;;4955140;28;20027;-78
2021/05/09 12:25:52;;;;;;;4.85;0.73;;;25.60;67.50;;;;;;4950069;28;20829;-78
2021/05/09 12:28:29;;;;;;;6.82;1.25;;;25.80;67.10;;;;;;4964719;28;20031;-78
2021/05/09 12:30:55;;;;;;;4.95;1.83;;;25.80;64.50;;;;;;4956983;28;20044;-78
2021/05/09 12:33:28;;;;;;;4.10;0.98;;;25.70;67.30;;;;;;4961634;28;20038;-78
2021/05/09 12:35:55;;;;;;;4.68;1.10;;;26.10;68.20;;;;;;4954154;28;20047;-78
2021/05/09 12:38:26;;;;;;;2.05;0.80;;;26.20;68.00;;;;;;4958702;28;20043;-78
2021/05/09 12:41:20;;;;;;;4.28;0.80;;;26.10;67.40;;;;;;4947585;28;20039;-78
2021/05/09 12:43:56;;;;;;;2.53;0.60;;;26.30;67.80;;;;;;4970748;28;20065;-78
2021/05/09 12:46:50;;;;;;;7.55;1.05;;;26.20;66.90;;;;;;4959892;28;20444;-78
2021/05/09 12:49:21;;;;;;;3.00;0.63;;;26.50;66.40;;;;;;4957322;28;20051;-78
2021/05/09 12:51:58;;;;;;;;;;;26.40;65.50;;;;;;4959569;28;20041;-79
2021/05/09 12:54:41;;;;;;;6.03;1.20;;;26.40;66.30;;;;;;4958549;28;19917;-78
2021/05/09 12:57:23;;;;;;;3.08;0.70;;;26.40;66.00;;;;;;4955714;28;20381;-77
2021/05/09 12:59:55;;;;;;;5.43;0.70;;;26.70;65.60;;;;;;4969446;28;20019;-77